Time;durP1;ratioP1;P1;durP2;ratioP2;P2;SDS_P1;SDS_P2;PMS_P1;PMS_P2;Temp;Humidity;BMP_temperature;BMP_pressure;BME280_temperature;BME280_humidity;BME280_pressure;Samples;Min_cycle;Max_cycle;Signal;HPM_P1;HPM_P2
2021/11/07 00:02:07;;;;;;;19.35;2.90;;;9.40;99.90;;;;;;5055372;28;20021;-95
2021/11/07 00:04:48;;;;;;;15.60;2.33;;;9.40;99.90;;;;;;5055089;28;20057;-94
2021/11/07 00:09:56;;;;;;;24.45;3.30;;;9.40;99.90;;;;;;5056604;28;20036;-93
2021/11/07 00:12:25;;;;;;;23.25;3.90;;;9.40;99.90;;;;;;5054953;28;20494;-94
2021/11/07 00:14:51;;;;;;;28.98;4.88;;;9.40;99.90;;;;;;5054844;28;20174;-94
2021/11/07 00:17:24;;;;;;;19.65;2.83;;;9.40;99.90;;;;;;5054710;28;20025;-94
2021/11/07 00:19:55;;;;;;;17.67;3.58;;;9.40;99.90;;;;;;5055086;28;20032;-94
2021/11/07 00:22:47;;;;;;;;;;;9.40;99.90;;;;;;5054578;28;20033;-94
2021/11/07 00:27:49;;;;;;;28.08;3.33;;;9.40;99.90;;;;;;5056003;28;20037;-96
2021/11/07 00:30:37;;;;;;;16.90;2.78;;;9.40;99.90;;;;;;5055090;28;20041;-94
2021/11/07 00:46:56;;;;;;;19.63;2.72;;;9.30;99.90;;;;;;5013598;28;20061;-95
2021/11/07 00:57:21;;;;;;;25.20;4.30;;;9.10;99.90;;;;;;4974344;28;20130;-96
2021/11/07 01:00:02;;;;;;;25.88;3.15;;;9.10;99.90;;;;;;4958786;28;20587;-95
2021/11/07 01:02:31;;;;;;;32.72;4.13;;;9.00;99.90;;;;;;4958347;28;20038;-94
2021/11/07 01:05:03;;;;;;;20.67;3.05;;;9.00;99.90;;;;;;4957980;28;20038;-94
2021/11/07 01:07:29;;;;;;;17.85;2.58;;;9.00;99.90;;;;;;4957948;28;20073;-94
2021/11/07 01:09:56;;;;;;;35.25;4.95;;;9.00;99.90;;;;;;4958065;28;20075;-94
2021/11/07 01:12:22;;;;;;;23.63;4.20;;;9.00;99.90;;;;;;4958040;28;20023;-94
2021/11/07 01:14:53;;;;;;;29.58;4.75;;;8.90;99.90;;;;;;4957836;28;20405;-94
2021/11/07 01:17:19;;;;;;;17.65;2.90;;;9.00;99.90;;;;;;4957804;28;20035;-94
2021/11/07 01:19:45;;;;;;;26.70;2.83;;;8.90;99.90;;;;;;4957950;28;20545;-94
2021/11/07 01:22:16;;;;;;;22.25;3.30;;;8.90;99.90;;;;;;4957842;28;20031;-94
2021/11/07 01:24:50;;;;;;;23.27;4.88;;;8.90;99.90;;;;;;4990091;28;20433;-94
2021/11/07 01:29:46;;;;;;;22.88;3.92;;;8.90;99.90;;;;;;4974603;28;20114;-96
2021/11/07 01:32:14;;;;;;;14.80;2.63;;;8.90;99.90;;;;;;4959167;28;20023;-92
2021/11/07 01:34:51;;;;;;;18.73;2.72;;;8.90;99.90;;;;;;5019993;28;20052;-94
2021/11/07 01:37:22;;;;;;;29.83;2.78;;;8.90;99.90;;;;;;5055218;28;20021;-93
2021/11/07 01:39:56;;;;;;;;;;;8.90;99.90;;;;;;5054231;28;20048;-94
2021/11/07 01:42:32;;;;;;;17.40;2.97;;;8.90;99.90;;;;;;5070029;28;19959;-94
2021/11/07 01:45:03;;;;;;;18.15;2.50;;;8.90;99.90;;;;;;5053119;28;20029;-94
2021/11/07 01:47:29;;;;;;;17.23;2.75;;;8.90;99.90;;;;;;5053485;28;20033;-95
2021/11/07 01:49:55;;;;;;;27.17;3.50;;;8.90;99.90;;;;;;5053061;28;20108;-95
2021/11/07 01:52:22;;;;;;;17.27;1.85;;;8.90;99.90;;;;;;5053331;28;20551;-95
2021/11/07 01:54:52;;;;;;;20.67;3.00;;;9.00;99.90;;;;;;5052832;28;20032;-94
2021/11/07 01:57:26;;;;;;;25.85;3.35;;;9.00;99.90;;;;;;5054420;28;20032;-95
2021/11/07 01:59:55;;;;;;;28.80;3.75;;;9.00;99.90;;;;;;5055229;28;20083;-96
2021/11/07 02:02:24;;;;;;;21.00;3.03;;;9.00;99.90;;;;;;5054605;28;20046;-95
2021/11/07 02:04:50;;;;;;;22.67;3.40;;;9.00;99.90;;;;;;5053249;28;20021;-95
2021/11/07 02:07:16;;;;;;;24.42;3.30;;;8.90;99.90;;;;;;5051865;28;20106;-95
2021/11/07 02:09:42;;;;;;;22.42;2.90;;;9.00;99.90;;;;;;5053232;28;20068;-95
2021/11/07 02:12:09;;;;;;;20.70;2.83;;;8.90;99.90;;;;;;5052631;28;20029;-95
2021/11/07 02:14:36;;;;;;;20.83;2.67;;;9.00;99.90;;;;;;5053069;28;20029;-94
2021/11/07 02:17:02;;;;;;;21.85;3.28;;;9.00;99.90;;;;;;5052766;28;20497;-96
2021/11/07 02:19:28;;;;;;;20.58;3.17;;;9.00;99.90;;;;;;5053103;28;20021;-95
2021/11/07 02:21:54;;;;;;;17.27;2.58;;;9.00;99.90;;;;;;5053264;28;20035;-95
2021/11/07 02:24:20;;;;;;;26.65;3.08;;;9.00;99.90;;;;;;5052883;28;20036;-95
2021/11/07 02:26:59;;;;;;;23.10;2.33;;;9.00;99.90;;;;;;5052917;28;20112;-94
2021/11/07 02:29:26;;;;;;;13.90;2.28;;;9.00;99.90;;;;;;5052854;28;20033;-94
2021/11/07 02:31:55;;;;;;;34.45;3.92;;;9.00;99.90;;;;;;5052861;28;20028;-94
2021/11/07 02:34:21;;;;;;;22.63;2.45;;;9.00;99.90;;;;;;5052598;28;20082;-94
2021/11/07 02:36:46;;;;;;;21.63;3.05;;;9.00;99.90;;;;;;5052630;28;20120;-95
2021/11/07 02:39:15;;;;;;;31.42;2.97;;;9.00;99.90;;;;;;5052728;28;20029;-93
2021/11/07 02:41:42;;;;;;;20.67;3.38;;;9.00;99.90;;;;;;5052719;28;20474;-94
2021/11/07 02:44:07;;;;;;;19.63;2.95;;;8.90;99.90;;;;;;5052788;28;20055;-94
2021/11/07 02:46:33;;;;;;;26.08;3.67;;;8.90;99.90;;;;;;5054684;28;20104;-94
2021/11/07 02:49:01;;;;;;;31.95;4.43;;;8.90;99.90;;;;;;5056678;28;20132;-94
2021/11/07 02:51:30;;;;;;;24.65;3.05;;;8.90;99.90;;;;;;5057138;28;20036;-93
2021/11/07 02:53:56;;;;;;;28.83;3.88;;;8.90;99.90;;;;;;5057292;28;20435;-94
2021/11/07 02:56:22;;;;;;;24.60;2.95;;;8.80;99.90;;;;;;5057161;28;20043;-93
2021/11/07 02:58:49;;;;;;;19.55;2.50;;;8.80;99.90;;;;;;5057132;28;20051;-94
2021/11/07 03:01:19;;;;;;;28.10;3.42;;;8.80;99.90;;;;;;5056901;28;20029;-94
2021/11/07 03:03:45;;;;;;;;;;;8.70;99.90;;;;;;5057250;28;20017;-94
2021/11/07 03:06:11;;;;;;;19.67;2.83;;;8.70;99.90;;;;;;5072745;28;20327;-94
2021/11/07 03:08:42;;;;;;;18.50;3.22;;;8.70;99.90;;;;;;5056093;28;20410;-94
2021/11/07 03:11:08;;;;;;;19.65;3.28;;;8.60;99.90;;;;;;5056230;28;20056;-93
2021/11/07 03:13:33;;;;;;;34.88;4.05;;;8.60;99.90;;;;;;5055808;28;20048;-94
2021/11/07 03:16:08;;;;;;;25.73;3.40;;;8.60;99.90;;;;;;5056330;28;20066;-94
2021/11/07 03:18:35;;;;;;;26.92;4.47;;;8.60;99.90;;;;;;5055908;28;20021;-94
2021/11/07 03:21:05;;;;;;;27.85;4.15;;;8.50;99.90;;;;;;5056173;28;20539;-95
2021/11/07 03:23:31;;;;;;;20.45;3.13;;;8.60;99.90;;;;;;5056559;28;20032;-94
2021/11/07 03:26:04;;;;;;;26.70;3.40;;;8.50;99.90;;;;;;5056955;28;20036;-94
2021/11/07 03:28:32;;;;;;;18.15;3.22;;;8.50;99.90;;;;;;5063416;28;20044;-93
2021/11/07 03:33:30;;;;;;;29.13;3.42;;;8.50;99.90;;;;;;5072427;28;20037;-94
2021/11/07 03:35:58;;;;;;;30.08;4.30;;;8.50;99.90;;;;;;5071560;28;20028;-94
2021/11/07 03:38:24;;;;;;;26.58;3.42;;;8.50;99.90;;;;;;5070364;28;20028;-95
2021/11/07 03:40:50;;;;;;;25.00;3.00;;;8.50;99.90;;;;;;5059397;28;20518;-95
2021/11/07 03:43:16;;;;;;;27.83;3.70;;;8.50;99.90;;;;;;5055732;28;20033;-94
2021/11/07 03:45:42;;;;;;;25.10;4.82;;;8.50;99.90;;;;;;5055727;28;20371;-94
2021/11/07 03:48:08;;;;;;;22.33;3.58;;;8.50;99.90;;;;;;5055703;28;20609;-94
2021/11/07 03:50:34;;;;;;;26.48;3.00;;;8.50;99.90;;;;;;5054134;28;20025;-94
2021/11/07 03:53:00;;;;;;;30.90;3.83;;;8.50;99.90;;;;;;5055638;28;20039;-94
2021/11/07 03:55:26;;;;;;;25.20;3.47;;;8.50;99.90;;;;;;5055329;28;20120;-93
2021/11/07 03:57:52;;;;;;;28.35;3.05;;;8.50;99.90;;;;;;5054403;28;20037;-95
2021/11/07 04:00:20;;;;;;;25.33;3.60;;;8.50;99.90;;;;;;5055204;28;20025;-94
2021/11/07 04:02:47;;;;;;;21.90;3.45;;;8.50;99.90;;;;;;5055547;28;20024;-94
2021/11/07 04:05:13;;;;;;;25.80;3.63;;;8.50;99.90;;;;;;5054987;28;20043;-95
2021/11/07 04:07:39;;;;;;;31.45;3.65;;;8.50;99.90;;;;;;5053866;28;20045;-95
2021/11/07 04:10:07;;;;;;;25.52;4.68;;;8.50;99.90;;;;;;5054806;28;20021;-94
2021/11/07 04:12:33;;;;;;;24.75;3.47;;;8.50;99.90;;;;;;5054857;28;20029;-94
2021/11/07 04:14:59;;;;;;;36.03;3.38;;;8.60;99.90;;;;;;5054816;28;20148;-94
2021/11/07 04:17:24;;;;;;;42.13;3.78;;;8.60;99.90;;;;;;5055068;28;20466;-95
2021/11/07 04:19:50;;;;;;;24.15;4.10;;;8.50;99.90;;;;;;5054811;28;20051;-94
2021/11/07 04:22:16;;;;;;;17.88;2.55;;;8.50;99.90;;;;;;5055191;28;20047;-94
2021/11/07 04:24:42;;;;;;;30.33;4.07;;;8.60;99.90;;;;;;5055242;28;20020;-94
2021/11/07 04:27:08;;;;;;;30.98;3.45;;;8.50;99.90;;;;;;5055324;28;20033;-93
2021/11/07 04:29:34;;;;;;;19.70;3.13;;;8.60;99.90;;;;;;5055871;28;20029;-94
2021/11/07 04:31:59;;;;;;;22.80;3.25;;;8.50;99.90;;;;;;5055545;28;20036;-94
2021/11/07 04:34:26;;;;;;;18.63;2.78;;;8.50;99.90;;;;;;5055582;28;20052;-94
2021/11/07 04:36:53;;;;;;;29.17;4.07;;;8.60;99.90;;;;;;5054928;28;20049;-94
2021/11/07 04:39:20;;;;;;;26.27;3.70;;;8.50;99.90;;;;;;5054671;28;20051;-93
2021/11/07 04:41:46;;;;;;;31.92;4.22;;;8.50;99.90;;;;;;5054934;28;20029;-94
2021/11/07 04:44:12;;;;;;;20.13;2.90;;;8.50;99.90;;;;;;5054751;28;20086;-94
2021/11/07 04:46:38;;;;;;;26.27;3.50;;;8.60;99.90;;;;;;5054404;28;20436;-94
2021/11/07 04:49:04;;;;;;;22.35;3.55;;;8.50;99.90;;;;;;5054378;28;20029;-95
2021/11/07 04:51:30;;;;;;;27.10;4.15;;;8.50;99.90;;;;;;5054208;28;20025;-95
2021/11/07 04:53:56;;;;;;;25.20;3.95;;;8.50;99.90;;;;;;5054398;28;20035;-94
2021/11/07 04:56:21;;;;;;;31.35;3.60;;;8.50;99.90;;;;;;5054666;28;20056;-95
2021/11/07 04:58:47;;;;;;;25.05;2.90;;;8.50;99.90;;;;;;5054591;28;20048;-95
2021/11/07 05:01:13;;;;;;;31.95;3.80;;;8.50;99.90;;;;;;5054521;28;20040;-94
2021/11/07 05:03:39;;;;;;;28.77;4.05;;;8.50;99.90;;;;;;5054563;28;20028;-95
2021/11/07 05:06:05;;;;;;;24.42;3.75;;;8.50;99.90;;;;;;5054683;28;20072;-95
2021/11/07 05:08:31;;;;;;;23.25;4.13;;;8.50;99.90;;;;;;5054213;28;20039;-95
2021/11/07 05:10:58;;;;;;;30.20;4.82;;;8.50;99.90;;;;;;5054146;28;20459;-94
2021/11/07 05:13:24;;;;;;;25.05;3.25;;;8.50;99.90;;;;;;5054682;28;20482;-95
2021/11/07 05:15:50;;;;;;;24.52;3.90;;;8.50;99.90;;;;;;5054207;28;20048;-94
2021/11/07 05:18:18;;;;;;;18.70;3.20;;;8.50;99.90;;;;;;5053427;28;20032;-95
2021/11/07 05:20:45;;;;;;;17.75;3.60;;;8.40;99.90;;;;;;5053786;28;20025;-95
2021/11/07 05:23:11;;;;;;;25.58;3.65;;;8.50;99.90;;;;;;5053630;28;20112;-95
2021/11/07 05:25:37;;;;;;;31.15;5.50;;;8.40;99.90;;;;;;5053347;28;20032;-95
2021/11/07 05:28:03;;;;;;;30.98;4.18;;;8.40;99.90;;;;;;5053555;28;20037;-94
2021/11/07 05:30:29;;;;;;;23.88;3.90;;;8.50;99.90;;;;;;5053806;28;20029;-95
2021/11/07 05:32:55;;;;;;;37.45;5.70;;;8.40;99.90;;;;;;5053731;28;20051;-95
2021/11/07 05:35:21;;;;;;;29.02;3.85;;;8.40;99.90;;;;;;5053648;28;20021;-96
2021/11/07 05:37:48;;;;;;;31.15;4.72;;;8.40;99.90;;;;;;5053338;28;20052;-94
2021/11/07 05:40:14;;;;;;;34.20;3.60;;;8.40;99.90;;;;;;5053350;28;20492;-94
2021/11/07 05:42:39;;;;;;;31.00;4.72;;;8.40;99.90;;;;;;5053361;28;20025;-93
2021/11/07 05:45:06;;;;;;;44.17;5.97;;;8.40;99.90;;;;;;5046846;28;20108;-94
2021/11/07 05:47:33;;;;;;;37.20;4.30;;;8.40;99.90;;;;;;5052120;28;20037;-95
2021/11/07 05:49:59;;;;;;;26.55;4.07;;;8.30;99.90;;;;;;5051934;28;20067;-94
2021/11/07 05:52:26;;;;;;;31.35;3.83;;;8.30;99.90;;;;;;5052234;28;20028;-94
2021/11/07 05:54:52;;;;;;;23.55;5.60;;;8.30;99.90;;;;;;5044020;28;20022;-93
2021/11/07 05:57:18;;;;;;;25.40;3.90;;;8.30;99.90;;;;;;5051839;28;20493;-94
2021/11/07 05:59:43;;;;;;;33.08;4.53;;;8.30;99.90;;;;;;5052388;28;20049;-94
2021/11/07 06:02:09;;;;;;;19.85;3.30;;;8.30;99.90;;;;;;5053235;28;20025;-94
2021/11/07 06:04:35;;;;;;;18.42;2.92;;;8.30;99.90;;;;;;5052776;28;20039;-94
2021/11/07 06:07:01;;;;;;;29.55;3.72;;;8.30;99.90;;;;;;5053055;28;20470;-92
2021/11/07 06:09:26;;;;;;;34.17;4.40;;;8.20;99.90;;;;;;5051863;28;20548;-94
2021/11/07 06:11:52;;;;;;;25.55;3.70;;;8.20;99.90;;;;;;5052685;28;20570;-94
2021/11/07 06:14:18;;;;;;;25.17;3.47;;;8.20;99.90;;;;;;5052403;28;20103;-94
2021/11/07 06:16:44;;;;;;;25.92;4.20;;;8.20;99.90;;;;;;5052947;28;20496;-93
2021/11/07 06:19:09;;;;;;;36.83;3.50;;;8.20;99.90;;;;;;5052394;28;20078;-93
2021/11/07 06:21:37;;;;;;;24.10;3.10;;;8.20;99.90;;;;;;5051904;28;20466;-94
2021/11/07 06:24:06;;;;;;;33.85;3.67;;;8.20;99.90;;;;;;5052445;28;20021;-93
2021/11/07 06:26:32;;;;;;;21.23;3.33;;;8.20;99.90;;;;;;5052553;28;20535;-94
2021/11/07 06:28:59;;;;;;;20.75;3.88;;;8.20;99.90;;;;;;5052494;28;20116;-92
2021/11/07 06:31:25;;;;;;;42.05;4.18;;;8.20;99.90;;;;;;5052590;28;20225;-94
2021/11/07 06:33:51;;;;;;;33.63;3.60;;;8.20;99.90;;;;;;5052339;28;20364;-93
2021/11/07 06:36:17;;;;;;;35.35;4.22;;;8.20;99.90;;;;;;5052669;28;20028;-93
2021/11/07 06:38:43;;;;;;;25.50;3.30;;;8.20;99.90;;;;;;5052561;28;20464;-93
2021/11/07 06:41:10;;;;;;;34.63;3.90;;;8.20;99.90;;;;;;5052342;28;20029;-93
2021/11/07 06:43:35;;;;;;;25.52;3.53;;;8.20;99.90;;;;;;5052549;28;20059;-93
2021/11/07 06:46:01;;;;;;;37.38;3.92;;;8.20;99.90;;;;;;5052283;28;20021;-94
2021/11/07 06:48:28;;;;;;;36.38;4.38;;;8.30;99.90;;;;;;5052326;28;20128;-93
2021/11/07 06:50:54;;;;;;;33.35;4.60;;;8.20;99.90;;;;;;5052109;28;20060;-94
2021/11/07 06:53:20;;;;;;;16.75;2.70;;;8.30;99.90;;;;;;5058929;28;20064;-92
2021/11/07 06:55:46;;;;;;;29.70;3.22;;;8.20;99.90;;;;;;5052829;28;20039;-94
2021/11/07 06:58:12;;;;;;;27.98;3.33;;;8.30;99.90;;;;;;5051207;28;20104;-93
2021/11/07 07:00:38;;;;;;;35.40;3.50;;;8.20;99.90;;;;;;5051332;28;20135;-93
2021/11/07 07:03:04;;;;;;;37.10;3.60;;;8.20;99.90;;;;;;5054009;28;20116;-94
2021/11/07 07:05:33;;;;;;;33.80;3.45;;;8.20;99.90;;;;;;5056487;28;20025;-94
2021/11/07 07:08:08;;;;;;;19.52;3.92;;;8.20;99.90;;;;;;5059316;28;20096;-95
2021/11/07 07:10:37;;;;;;;23.40;3.72;;;8.20;99.90;;;;;;5056727;28;20113;-93
2021/11/07 07:13:09;;;;;;;29.40;4.30;;;8.20;99.90;;;;;;5059441;28;20021;-94
2021/11/07 07:15:45;;;;;;;23.42;5.00;;;8.20;99.90;;;;;;5051295;28;20066;-94
2021/11/07 07:36:25;;;;;;;43.22;4.00;;;8.10;99.90;;;;;;5034079;28;20099;-93
2021/11/07 07:38:51;;;;;;;29.65;4.20;;;8.10;99.90;;;;;;5033399;28;20029;-94
2021/11/07 07:41:17;;;;;;;25.15;4.75;;;8.10;99.90;;;;;;5033396;28;20019;-95
2021/11/07 07:43:45;;;;;;;25.45;3.58;;;8.10;99.90;;;;;;5033164;28;20065;-94
2021/11/07 07:46:12;;;;;;;30.15;3.92;;;8.10;99.90;;;;;;5014080;28;20029;-94
2021/11/07 07:48:44;;;;;;;28.88;3.60;;;8.10;99.90;;;;;;5033075;28;20521;-95
2021/11/07 07:51:15;;;;;;;25.98;4.05;;;8.10;99.90;;;;;;5033495;28;20036;-94
2021/11/07 07:53:48;;;;;;;;;;;8.00;99.90;;;;;;5033950;28;20029;-94
2021/11/07 07:56:14;;;;;;;36.70;3.30;;;8.00;99.90;;;;;;5033780;28;19911;-94
2021/11/07 07:58:41;;;;;;;17.55;2.60;;;8.00;99.90;;;;;;5032900;28;20128;-95
2021/11/07 08:01:08;;;;;;;31.42;4.00;;;8.00;99.90;;;;;;5032927;28;20026;-94
2021/11/07 08:03:34;;;;;;;33.03;3.75;;;8.00;99.90;;;;;;5034539;28;20841;-92
2021/11/07 08:06:03;;;;;;;33.30;4.53;;;8.00;99.90;;;;;;5062336;28;20036;-93
2021/11/07 08:08:28;;;;;;;29.38;4.18;;;8.00;99.90;;;;;;5053698;28;20544;-93
2021/11/07 08:10:54;;;;;;;31.60;4.03;;;8.00;99.90;;;;;;5052472;28;20021;-94
2021/11/07 08:13:20;;;;;;;25.40;3.40;;;8.00;99.90;;;;;;5053979;28;20045;-94
2021/11/07 08:15:46;;;;;;;26.85;3.53;;;8.10;99.90;;;;;;5061814;28;20048;-95
2021/11/07 08:18:11;;;;;;;28.85;4.22;;;8.10;99.90;;;;;;5051304;28;20025;-93
2021/11/07 08:20:44;;;;;;;24.38;5.72;;;8.10;99.90;;;;;;5043447;28;20024;-95
2021/11/07 08:23:10;;;;;;;27.73;4.13;;;8.10;99.90;;;;;;5054964;28;20032;-93
2021/11/07 08:25:35;;;;;;;37.35;4.18;;;8.10;99.90;;;;;;5054554;28;20364;-95
2021/11/07 08:28:03;;;;;;;31.02;3.90;;;8.20;99.90;;;;;;5059824;28;20044;-94
2021/11/07 08:30:31;;;;;;;35.38;4.90;;;8.20;99.90;;;;;;5053426;28;21377;-95
2021/11/07 08:32:58;;;;;;;26.30;3.13;;;8.20;99.90;;;;;;5053419;28;20021;-94
2021/11/07 08:35:24;;;;;;;21.48;2.95;;;8.30;99.90;;;;;;5053242;28;20028;-94
2021/11/07 08:37:55;;;;;;;31.50;5.70;;;8.30;99.90;;;;;;5053357;28;20036;-94
2021/11/07 08:40:31;;;;;;;21.38;3.60;;;8.30;99.90;;;;;;5055958;28;20025;-94
2021/11/07 09:07:20;;;;;;;29.65;3.63;;;8.70;99.90;;;;;;5035764;28;20086;-94
2021/11/07 09:09:46;;;;;;;36.97;4.13;;;8.80;99.90;;;;;;5057737;28;20040;-94
2021/11/07 09:12:12;;;;;;;33.38;4.75;;;8.80;99.90;;;;;;5062193;28;20052;-96
2021/11/07 09:14:47;;;;;;;31.20;4.75;;;8.90;99.90;;;;;;5070786;28;20033;-96
2021/11/07 09:17:23;;;;;;;19.23;3.25;;;9.00;99.90;;;;;;5070820;28;20036;-95
2021/11/07 09:19:52;;;;;;;37.13;4.03;;;9.00;99.90;;;;;;5061708;28;20047;-96
2021/11/07 09:22:34;;;;;;;32.47;3.35;;;9.00;99.90;;;;;;5057102;28;20071;-96
2021/11/07 09:25:04;;;;;;;32.72;5.30;;;9.10;99.90;;;;;;5055657;28;20036;-95
2021/11/07 09:32:33;;;;;;;16.95;2.22;;;9.40;99.90;;;;;;5058787;28;20048;-96
2021/11/07 09:37:42;;;;;;;35.50;3.72;;;9.70;99.90;;;;;;5063944;28;20079;-95
2021/11/07 09:40:12;;;;;;;26.45;4.28;;;9.80;99.90;;;;;;5063199;28;20017;-96
2021/11/07 09:47:44;;;;;;;32.33;4.25;;;10.10;99.90;;;;;;5058253;28;20072;-95
2021/11/07 09:50:13;;;;;;;40.42;4.82;;;10.20;99.90;;;;;;5057226;28;20481;-96
2021/11/07 09:52:57;;;;;;;27.23;4.15;;;10.40;99.90;;;;;;5415517;22;20112;-96
2021/11/07 09:55:27;;;;;;;17.50;3.55;;;10.60;99.90;;;;;;5674328;22;20049;-95
2021/11/07 10:00:54;;;;;;;27.02;3.42;;;10.90;99.90;;;;;;5274560;23;20054;-95
2021/11/07 10:03:24;;;;;;;22.42;3.88;;;11.10;99.90;;;;;;4997295;28;20073;-95
2021/11/07 10:08:21;;;;;;;27.17;3.17;;;11.50;99.90;;;;;;4976809;28;20059;-95
2021/11/07 10:11:00;;;;;;;28.77;4.53;;;11.60;99.90;;;;;;4970568;28;20373;-92
2021/11/07 10:13:27;;;;;;;23.17;3.78;;;11.80;99.40;;;;;;4969351;28;20031;-96
2021/11/07 10:16:06;;;;;;;10.07;2.15;;;11.80;98.90;;;;;;4981782;28;20049;-94
2021/11/07 10:21:25;;;;;;;22.27;3.47;;;11.90;98.20;;;;;;4974489;28;20063;-96
2021/11/07 10:24:12;;;;;;;18.35;4.22;;;11.80;97.40;;;;;;4976666;28;20070;-96
2021/11/07 10:26:41;;;;;;;22.85;4.05;;;11.60;97.80;;;;;;4977510;28;20106;-96
2021/11/07 10:29:11;;;;;;;19.48;3.42;;;11.60;98.20;;;;;;4967681;28;20126;-94
2021/11/07 10:31:47;;;;;;;26.05;4.80;;;11.40;98.30;;;;;;4959562;28;20050;-96
2021/11/07 10:39:49;;;;;;;19.88;3.58;;;11.20;98.90;;;;;;4976110;28;20086;-95
2021/11/07 10:47:28;;;;;;;24.73;5.35;;;10.90;99.00;;;;;;4981757;28;20019;-96
2021/11/07 10:52:43;;;;;;;16.80;2.95;;;10.80;99.40;;;;;;4980718;28;20142;-96
2021/11/07 10:55:21;;;;;;;35.78;7.60;;;10.80;99.30;;;;;;4976969;28;20252;-96
2021/11/07 10:57:53;;;;;;;29.95;5.13;;;10.80;99.20;;;;;;4982032;28;20475;-96
2021/11/07 11:00:27;;;;;;;23.38;4.20;;;10.80;98.90;;;;;;4981440;28;20106;-96
2021/11/07 11:02:57;;;;;;;25.25;4.20;;;10.90;98.70;;;;;;4976408;28;20019;-95
2021/11/07 11:05:25;;;;;;;32.57;4.00;;;11.10;98.60;;;;;;4976288;28;20031;-96
2021/11/07 11:07:55;;;;;;;24.45;3.45;;;11.30;98.20;;;;;;4980648;28;20051;-96
2021/11/07 11:10:27;;;;;;;24.52;3.40;;;11.50;97.40;;;;;;4980831;28;20029;-95
2021/11/07 11:13:12;;;;;;;28.50;3.63;;;11.70;97.00;;;;;;4981282;28;20050;-96
2021/11/07 11:15:44;;;;;;;21.33;3.22;;;11.90;96.40;;;;;;4981249;28;20030;-96
2021/11/07 11:21:21;;;;;;;16.98;2.88;;;12.00;95.70;;;;;;4983043;28;20042;-96
2021/11/07 11:29:10;;;;;;;21.63;3.30;;;11.80;94.70;;;;;;4987859;28;20031;-96
2021/11/07 11:31:51;;;;;;;26.45;3.50;;;11.60;95.00;;;;;;4979259;28;20034;-96
2021/11/07 11:34:22;;;;;;;20.88;3.50;;;11.50;95.20;;;;;;4984003;28;20029;-96
2021/11/07 11:36:58;;;;;;;24.77;3.42;;;11.60;95.70;;;;;;4983504;28;20101;-96
2021/11/07 11:39:34;;;;;;;18.90;2.50;;;11.70;95.80;;;;;;4982941;28;20082;-96
2021/11/07 11:42:23;;;;;;;19.70;2.42;;;11.70;95.40;;;;;;4981700;28;20118;-95
2021/11/07 11:44:54;;;;;;;25.35;3.88;;;11.80;95.40;;;;;;4983168;28;20037;-95
2021/11/07 11:48:22;;;;;;;24.00;2.50;;;11.90;94.90;;;;;;4985456;28;20023;-96
2021/11/07 11:55:44;;;;;;;19.65;3.70;;;11.90;94.30;;;;;;4979383;28;20388;-96
2021/11/07 11:58:24;;;;;;;12.98;2.00;;;12.00;94.30;;;;;;4982826;28;20019;-95
2021/11/07 12:01:05;;;;;;;14.38;2.10;;;12.10;94.00;;;;;;4985008;28;20090;-96
2021/11/07 12:06:44;;;;;;;20.58;2.95;;;12.30;93.10;;;;;;4980346;28;20146;-96
2021/11/07 12:09:36;;;;;;;31.95;5.40;;;12.40;93.00;;;;;;4982781;28;20035;-96
2021/11/07 12:15:01;;;;;;;17.25;3.08;;;12.50;92.70;;;;;;4985338;28;20043;-96
2021/11/07 12:17:32;;;;;;;19.70;3.58;;;12.40;91.50;;;;;;4975616;28;20125;-96
2021/11/07 12:20:19;;;;;;;23.02;3.50;;;12.30;91.60;;;;;;4981357;28;20086;-96
2021/11/07 12:22:44;;;;;;;30.58;3.38;;;12.20;91.80;;;;;;4983121;28;20113;-95
2021/11/07 12:25:11;;;;;;;24.05;5.22;;;12.10;92.00;;;;;;4982148;28;20061;-96
2021/11/07 12:27:46;;;;;;;29.05;3.85;;;12.00;92.10;;;;;;4979388;28;20039;-96
2021/11/07 12:30:14;;;;;;;21.85;4.10;;;12.10;92.40;;;;;;4979457;28;20033;-96
2021/11/07 12:32:43;;;;;;;22.42;2.63;;;12.10;92.30;;;;;;4983426;28;20094;-96
2021/11/07 12:35:22;;;;;;;18.92;3.85;;;12.10;91.90;;;;;;4982455;28;20042;-96
2021/11/07 12:41:04;;;;;;;29.75;3.05;;;11.90;92.10;;;;;;4983472;28;20026;-96
2021/11/07 12:43:35;;;;;;;18.30;3.10;;;11.80;92.20;;;;;;4983182;28;20110;-96
2021/11/07 12:46:17;;;;;;;25.63;3.22;;;11.70;92.40;;;;;;4982429;28;20044;-96
2021/11/07 12:48:48;;;;;;;12.77;2.22;;;11.70;92.50;;;;;;4979823;28;20105;-96
2021/11/07 12:51:15;;;;;;;;;;;11.70;92.80;;;;;;4982557;28;20050;-96
2021/11/07 12:54:26;;;;;;;20.23;3.58;;;11.80;92.80;;;;;;4989289;28;19906;-96
2021/11/07 12:59:32;;;;;;;13.68;2.83;;;12.00;92.70;;;;;;4983122;28;20050;-96
2021/11/07 13:02:06;;;;;;;22.52;3.13;;;12.20;92.70;;;;;;4970680;28;20092;-96
2021/11/07 13:04:48;;;;;;;26.30;3.70;;;12.50;92.30;;;;;;4972531;28;20057;-96
2021/11/07 13:07:25;;;;;;;25.13;3.95;;;12.80;92.00;;;;;;4979422;28;20446;-96
2021/11/07 13:09:58;;;;;;;26.13;4.50;;;12.90;91.30;;;;;;4984626;28;20042;-95
2021/11/07 13:12:29;;;;;;;24.02;5.35;;;13.00;91.10;;;;;;4978921;28;20033;-95
2021/11/07 13:15:32;;;;;;;23.80;3.70;;;12.90;90.60;;;;;;4979017;28;20026;-96
2021/11/07 13:24:12;;;;;;;24.35;3.35;;;12.20;90.70;;;;;;4980879;28;20023;-96
2021/11/07 13:27:18;;;;;;;17.58;3.35;;;11.90;91.10;;;;;;4978830;28;20035;-94
2021/11/07 13:29:49;;;;;;;22.10;2.92;;;11.90;91.50;;;;;;4981858;28;20043;-94
2021/11/07 13:34:57;;;;;;;24.08;3.25;;;11.90;91.80;;;;;;4975333;28;19938;-95
2021/11/07 13:37:26;;;;;;;19.88;3.28;;;11.90;91.90;;;;;;4974951;28;20023;-96
2021/11/07 13:39:52;;;;;;;23.33;2.38;;;11.90;92.10;;;;;;4975706;28;20027;-95
2021/11/07 13:42:17;;;;;;;18.52;3.03;;;11.80;92.20;;;;;;4975093;28;20524;-96
2021/11/07 13:44:53;;;;;;;28.55;3.75;;;11.80;92.30;;;;;;4974574;28;20031;-96
2021/11/07 13:47:19;;;;;;;23.15;3.03;;;11.70;92.60;;;;;;4973542;28;20018;-96
2021/11/07 13:49:48;;;;;;;22.30;3.10;;;11.60;92.80;;;;;;4973701;28;20054;-95
2021/11/07 13:52:14;;;;;;;18.08;2.72;;;11.50;93.00;;;;;;4973632;28;20034;-96
2021/11/07 13:54:41;;;;;;;25.92;3.80;;;11.50;93.30;;;;;;4974419;28;20047;-94
2021/11/07 13:57:08;;;;;;;18.25;2.67;;;11.50;93.40;;;;;;4973078;28;20030;-96
2021/11/07 13:59:35;;;;;;;17.90;2.63;;;11.50;93.60;;;;;;4974530;28;20081;-96
2021/11/07 14:02:10;;;;;;;24.63;3.75;;;11.40;93.70;;;;;;4974803;28;20082;-95
2021/11/07 14:04:41;;;;;;;27.27;3.22;;;11.30;93.90;;;;;;4972438;28;20031;-95
2021/11/07 14:07:13;;;;;;;;;;;11.30;94.20;;;;;;4973019;28;20019;-95
2021/11/07 14:09:56;;;;;;;21.73;3.53;;;11.20;94.40;;;;;;4974060;28;20321;-96
2021/11/07 14:12:45;;;;;;;16.75;2.42;;;11.20;94.70;;;;;;4974139;28;20050;-95
2021/11/07 14:15:15;;;;;;;19.67;2.58;;;11.10;94.90;;;;;;4975351;28;20034;-95
2021/11/07 14:17:43;;;;;;;21.35;2.42;;;11.10;95.10;;;;;;4975224;28;20050;-96
2021/11/07 14:20:11;;;;;;;20.15;3.35;;;11.00;95.50;;;;;;4976759;28;20059;-94
2021/11/07 14:22:40;;;;;;;17.40;3.13;;;11.00;95.70;;;;;;4974740;28;20027;-95
2021/11/07 14:25:09;;;;;;;23.20;3.63;;;11.00;95.90;;;;;;4974574;28;20051;-94
2021/11/07 14:27:50;;;;;;;16.85;2.20;;;11.00;96.10;;;;;;4973510;28;20054;-93
2021/11/07 14:30:24;;;;;;;19.38;2.72;;;11.10;96.30;;;;;;4973139;28;20046;-94
2021/11/07 14:33:01;;;;;;;10.65;2.00;;;11.10;96.40;;;;;;4970319;28;20023;-95
2021/11/07 14:35:29;;;;;;;17.52;2.88;;;11.20;96.50;;;;;;4972358;28;20030;-92
2021/11/07 14:38:00;;;;;;;20.58;3.95;;;11.30;96.50;;;;;;4972908;28;20030;-96
2021/11/07 14:40:45;;;;;;;20.17;3.40;;;11.30;96.50;;;;;;4973812;28;20126;-96
2021/11/07 14:43:32;;;;;;;18.83;3.13;;;11.30;96.60;;;;;;4971162;28;20030;-94
2021/11/07 14:46:15;;;;;;;29.05;2.92;;;11.30;96.50;;;;;;4979863;28;20380;-96
2021/11/07 14:57:22;;;;;;;24.33;3.42;;;11.10;96.70;;;;;;4986284;28;20037;-96
2021/11/07 15:24:14;;;;;;;31.38;3.20;;;10.80;97.10;;;;;;4985819;28;20103;-96
2021/11/07 15:26:47;;;;;;;23.60;4.63;;;10.80;96.70;;;;;;4986447;28;20054;-95
2021/11/07 15:29:16;;;;;;;24.45;2.78;;;10.80;96.60;;;;;;4988836;28;20093;-96
2021/11/07 15:31:45;;;;;;;31.52;5.53;;;10.70;96.30;;;;;;4988443;28;20043;-96
2021/11/07 15:34:25;;;;;;;23.58;3.08;;;10.60;96.50;;;;;;4954391;28;20027;-96
2021/11/07 15:36:52;;;;;;;21.52;3.20;;;10.60;96.70;;;;;;4990388;28;20019;-96
2021/11/07 15:39:21;;;;;;;26.83;4.47;;;10.60;96.70;;;;;;4988244;28;20027;-96
2021/11/07 15:42:13;;;;;;;29.40;4.68;;;10.60;96.80;;;;;;4990049;28;20031;-96
2021/11/07 15:44:56;;;;;;;26.00;4.60;;;10.60;96.80;;;;;;4986579;28;20033;-96
2021/11/07 15:47:30;;;;;;;24.20;2.83;;;10.50;97.00;;;;;;4989721;28;20077;-96
2021/11/07 15:55:29;;;;;;;20.10;3.90;;;10.50;97.60;;;;;;4987658;28;20027;-95
2021/11/07 16:11:02;;;;;;;18.23;2.83;;;10.40;98.50;;;;;;4988873;28;20027;-96
2021/11/07 16:18:36;;;;;;;23.48;3.78;;;10.30;98.90;;;;;;4995360;28;20035;-96
2021/11/07 16:21:02;;;;;;;21.77;3.03;;;10.30;98.80;;;;;;4993944;28;20514;-94